Chantilly, VA (20151)

4:54 PM EDT on October 01, 2016 (GMT -0400)
Ridings at Blue Springs | | Change Station

Elev 303 ft 38.90 °N, 77.48 °W | Updated 22 seconds ago

Overcast
Overcast
64.7 °F
Feels Like 64.7 °F
N
0.0
Wind Variable Wind from ESE
Gusts 0.0 mph

Today
High -- | Low -- °F
--% Chance of Precip.
Yesterday
High -- | Low -- °F
Precip. -- in
Pressure 30.07 in
Visibility 2.0 miles
Clouds Overcast 600 ft
Dew Point 64 °F
Humidity 97%
Rainfall 0.18 in
Snow Depth Not available.
7:06 AM 6:51 PM
New Moon, 1% visible
METAR KIAD 012052Z 03006KT 2SM BR OVC006 18/17 A3007 RMK AO2 SFC VIS 3 SLP182 T01780167 56010
Pressure 30.07 in
Visibility 2.0 miles
Clouds Overcast 600 ft
Dew Point 64 °F
Humidity 97%
Rainfall 0.18 in
Snow Depth Not available.
7:06 AM 6:51 PM
New Moon, 1% visible
METAR KIAD 012052Z 03006KT 2SM BR OVC006 18/17 A3007 RMK AO2 SFC VIS 3 SLP182 T01780167 56010

10-Day Weather Forecast

Almanac

Astronomy

Oct. 01, 2016 Rise Set
Actual Time
Civil Twilight
Nautical Twilight
Astronomical Twilight
Moon
Length of Visible Light
Length of Day
Tomorrow will be .
, % of the Moon is Illuminated

Today's Extremes

State Highs State Lows

Community

WunderPhotos

Upload Photos

1,943,017 photos uploaded!

WunderBlog® & News

Nearby

Air Quality

  Air Quality AQ Index Pollutant
Not available.

Snow Depth

Station Depth Elevation

Earthquake Activity

City Distance Mag. Time & Date
Minimum magnitude displayed is 2.5.

Coastal Water Temperatures

Place Temperature

Stations

Nearby Weather Stations

Station Location Temp. Windchill Dew Point Humidity Wind Precip. Elev Updated Type
                   

Watches & Warnings

There are currently no watches in effect.